Time;durP1;ratioP1;P1;durP2;ratioP2;P2;SDS_P1;SDS_P2;PMS_P1;PMS_P2;Temp;Humidity;BMP_temperature;BMP_pressure;BME280_temperature;BME280_humidity;BME280_pressure;Samples;Min_cycle;Max_cycle;Signal;HPM_P1;HPM_P2
2022/01/19 00:00:46;;;;;;;;;;;22.10;46.70;;;;;;5080605;28;19912;-72
2022/01/19 00:03:12;;;;;;;;;;;22.10;46.80;;;;;;5085762;28;20031;-74
2022/01/19 00:05:38;;;;;;;;;;;22.00;46.80;;;;;;5085040;28;20340;-72
2022/01/19 00:08:03;;;;;;;;;;;22.00;46.80;;;;;;5085230;28;20011;-72
2022/01/19 00:10:29;;;;;;;;;;;22.00;46.80;;;;;;5084241;28;19920;-73
2022/01/19 00:12:55;;;;;;;;;;;22.00;46.80;;;;;;5084284;28;19912;-73
2022/01/19 00:15:21;;;;;;;;;;;21.90;46.80;;;;;;5081008;28;19916;-72
2022/01/19 00:17:47;;;;;;;;;;;21.90;46.80;;;;;;5085364;28;19916;-73
2022/01/19 00:20:13;;;;;;;;;;;21.90;46.80;;;;;;5079433;28;19920;-73
2022/01/19 00:22:39;;;;;;;;;;;21.90;46.90;;;;;;5081021;28;19912;-73
2022/01/19 00:25:07;;;;;;;;;;;21.90;46.90;;;;;;5078222;28;20436;-73
2022/01/19 00:27:33;;;;;;;;;;;21.90;46.90;;;;;;5077933;28;19924;-72
2022/01/19 00:29:59;;;;;;;;;;;21.80;46.80;;;;;;5076765;28;19937;-73
2022/01/19 00:32:25;;;;;;;;;;;21.80;46.90;;;;;;5081887;28;19943;-71
2022/01/19 00:34:51;;;;;;;;;;;21.80;46.90;;;;;;5084265;28;19920;-71
2022/01/19 00:37:17;;;;;;;;;;;21.80;46.90;;;;;;5079872;28;20009;-73
2022/01/19 00:39:42;;;;;;;;;;;21.80;47.00;;;;;;5084580;28;19927;-71
2022/01/19 00:42:08;;;;;;;;;;;21.70;46.90;;;;;;5078341;28;20384;-73
2022/01/19 00:44:33;;;;;;;;;;;21.70;46.90;;;;;;5082227;28;19916;-72
2022/01/19 00:46:59;;;;;;;;;;;21.70;47.00;;;;;;5081461;28;20641;-73
2022/01/19 00:49:24;;;;;;;;;;;21.70;47.00;;;;;;5084829;28;20375;-73
2022/01/19 00:51:50;;;;;;;;;;;21.70;47.00;;;;;;5083585;28;19916;-74
2022/01/19 00:54:15;;;;;;;;;;;21.60;46.90;;;;;;5086551;28;20437;-71
2022/01/19 00:56:41;;;;;;;;;;;21.60;47.00;;;;;;5083791;28;19948;-71
2022/01/19 00:59:07;;;;;;;;;;;21.60;47.00;;;;;;5085384;28;20352;-74
2022/01/19 01:01:32;;;;;;;;;;;21.60;47.00;;;;;;5086585;28;19916;-71
2022/01/19 01:03:58;;;;;;;;;;;21.60;47.00;;;;;;5080257;28;20088;-72
2022/01/19 01:06:23;;;;;;;;;;;21.50;46.90;;;;;;5085760;28;20619;-73
2022/01/19 01:08:49;;;;;;;;;;;21.50;47.00;;;;;;5081446;28;19960;-73
2022/01/19 01:11:14;;;;;;;;;;;21.50;47.00;;;;;;5083832;28;20574;-72
2022/01/19 01:17:09;;;;;;;;;;;21.50;47.10;;;;;;5082612;28;20349;-74
2022/01/19 01:19:09;;;;;;;;;;;21.50;47.10;;;;;;5084409;28;19916;-73
2022/01/19 01:21:34;;;;;;;;;;;21.40;47.00;;;;;;5086991;28;19999;-73
2022/01/19 01:24:01;;;;;;;;;;;21.50;47.10;;;;;;5083663;28;20011;-71
2022/01/19 01:26:26;;;;;;;;;;;21.40;47.10;;;;;;5082913;28;20450;-72
2022/01/19 01:28:52;;;;;;;;;;;21.40;47.10;;;;;;5081513;28;20021;-74
2022/01/19 01:31:18;;;;;;;;;;;21.40;47.10;;;;;;5084138;28;20003;-72
2022/01/19 01:33:44;;;;;;;;;;;21.40;47.20;;;;;;5086891;28;20322;-74
2022/01/19 01:36:09;;;;;;;;;;;21.40;47.20;;;;;;5086400;28;19969;-72
2022/01/19 01:38:37;;;;;;;;;;;21.40;47.20;;;;;;5085319;28;19935;-71
2022/01/19 01:41:03;;;;;;;;;;;21.30;47.20;;;;;;5083805;28;19916;-73
2022/01/19 01:43:28;;;;;;;;;;;21.30;47.20;;;;;;5081084;28;19916;-73
2022/01/19 01:46:01;;;;;;;;;;;21.30;47.20;;;;;;5085398;28;19916;-72
2022/01/19 01:48:26;;;;;;;;;;;21.30;47.30;;;;;;5085100;28;19916;-71
2022/01/19 01:53:36;;;;;;;;;;;21.20;47.20;;;;;;5082163;28;19977;-73
2022/01/19 01:56:13;;;;;;;;;;;21.30;47.30;;;;;;5096796;28;20372;-72
2022/01/19 01:58:44;;;;;;;;;;;21.30;47.30;;;;;;5082956;28;20023;-72
2022/01/19 02:01:10;;;;;;;;;;;21.20;47.30;;;;;;5082676;28;19919;-72
2022/01/19 02:03:39;;;;;;;;;;;21.20;47.30;;;;;;5080245;28;20517;-71
2022/01/19 02:08:39;;;;;;;;;;;21.20;47.40;;;;;;5084272;28;19916;-72
2022/01/19 02:16:34;;;;;;;;;;;21.20;48.00;;;;;;5088715;28;19927;-73
2022/01/19 02:22:03;;;;;;;;;;;21.10;47.40;;;;;;5044876;28;20381;-73
2022/01/19 02:24:42;;;;;;;;;;;21.10;47.40;;;;;;5073519;28;19926;-73
2022/01/19 02:28:55;;;;;;;;;;;21.10;47.50;;;;;;5088960;28;20052;-71
2022/01/19 02:30:30;;;;;;;;;;;21.10;47.50;;;;;;5086194;28;20311;-73
2022/01/19 02:40:58;;;;;;;;;;;21.00;47.50;;;;;;5087015;28;20030;-73
2022/01/19 02:43:27;;;;;;;;;;;21.00;47.50;;;;;;5078899;28;20204;-72
2022/01/19 02:51:21;;;;;;;;;;;21.00;47.60;;;;;;5087291;28;19977;-73
2022/01/19 02:53:46;;;;;;;;;;;20.90;47.60;;;;;;5088173;28;20011;-73
2022/01/19 02:56:25;;;;;;;;;;;20.90;47.60;;;;;;5083577;28;19913;-72
2022/01/19 02:58:56;;;;;;;;;;;20.90;47.60;;;;;;5085653;28;20052;-71
2022/01/19 03:09:34;;;;;;;;;;;20.90;47.70;;;;;;5086509;28;20333;-72
2022/01/19 03:12:00;;;;;;;;;;;20.90;47.70;;;;;;5086256;28;20416;-72
2022/01/19 03:14:25;;;;;;;;;;;20.80;47.60;;;;;;5085717;28;19916;-73
2022/01/19 03:16:51;;;;;;;;;;;20.80;47.70;;;;;;5085407;28;19916;-72
2022/01/19 03:19:17;;;;;;;;;;;20.80;47.70;;;;;;5087592;28;19942;-73
2022/01/19 03:21:42;;;;;;;;;;;20.80;47.70;;;;;;5088909;28;20292;-73
2022/01/19 03:24:10;;;;;;;;;;;20.80;47.70;;;;;;5082971;28;20261;-73
2022/01/19 03:26:36;;;;;;;;;;;20.80;47.80;;;;;;5085529;28;20484;-73
2022/01/19 03:29:01;;;;;;;;;;;20.80;47.80;;;;;;5085290;28;19999;-73
2022/01/19 03:31:27;;;;;;;;;;;20.80;47.80;;;;;;5087262;28;19989;-73
2022/01/19 03:33:52;;;;;;;;;;;20.80;47.80;;;;;;5087039;28;19924;-73
2022/01/19 03:36:18;;;;;;;;;;;20.80;47.80;;;;;;5088879;28;19982;-73
2022/01/19 03:38:44;;;;;;;;;;;20.80;47.80;;;;;;5086797;28;20469;-73
2022/01/19 03:41:09;;;;;;;;;;;20.80;47.80;;;;;;5084871;28;19916;-73
2022/01/19 03:43:35;;;;;;;;;;;20.80;47.80;;;;;;5085513;28;19977;-72
2022/01/19 03:46:03;;;;;;;;;;;20.70;47.80;;;;;;5086957;28;19920;-73
2022/01/19 03:48:38;;;;;;;;;;;20.70;47.80;;;;;;5088485;28;19920;-73
2022/01/19 03:51:04;;;;;;;;;;;20.70;48.30;;;;;;5087524;28;20283;-73
2022/01/19 03:53:29;;;;;;;;;;;20.70;47.80;;;;;;5088170;28;19912;-73
2022/01/19 03:55:55;;;;;;;;;;;20.70;47.80;;;;;;5084673;28;19913;-73
2022/01/19 03:58:21;;;;;;;;;;;20.70;47.80;;;;;;5087212;28;19923;-73
2022/01/19 04:00:46;;;;;;;;;;;20.70;47.80;;;;;;5084522;28;19927;-72
2022/01/19 04:03:15;;;;;;;;;;;20.70;47.90;;;;;;5086705;28;19920;-73
2022/01/19 04:05:56;;;;;;;;;;;20.70;47.90;;;;;;5086302;28;19943;-73
2022/01/19 04:08:22;;;;;;;;;;;20.70;47.90;;;;;;5083742;28;19912;-72
2022/01/19 04:10:48;;;;;;;;;;;20.70;47.90;;;;;;5082947;28;19912;-73
2022/01/19 04:15:49;;;;;;;;;;;20.70;47.90;;;;;;5086202;28;19920;-73
2022/01/19 04:18:14;;;;;;;;;;;20.60;47.90;;;;;;5085986;28;19927;-73
2022/01/19 04:20:42;;;;;;;;;;;20.60;48.00;;;;;;5083686;28;19912;-73
2022/01/19 04:23:08;;;;;;;;;;;20.60;48.00;;;;;;5083410;28;20390;-72
2022/01/19 04:25:33;;;;;;;;;;;20.60;48.00;;;;;;5082830;28;19912;-73
2022/01/19 04:27:59;;;;;;;;;;;20.60;48.00;;;;;;5084247;28;19969;-73
2022/01/19 04:30:27;;;;;;;;;;;20.60;48.00;;;;;;5086916;28;19969;-72
2022/01/19 04:35:28;;;;;;;;;;;20.60;48.00;;;;;;5084294;28;19943;-73
2022/01/19 05:02:54;;;;;;;;;;;20.50;48.20;;;;;;5075160;28;20325;-71
2022/01/19 05:05:05;;;;;;;;;;;20.50;48.20;;;;;;5078727;28;19916;-73
2022/01/19 05:07:38;;;;;;;;;;;20.50;48.20;;;;;;5080928;28;19916;-72
2022/01/19 05:13:25;;;;;;;;;;;20.50;48.30;;;;;;5079538;28;19935;-73
2022/01/19 05:15:34;;;;;;;;;;;20.50;48.30;;;;;;5082700;28;19962;-71
2022/01/19 05:18:02;;;;;;;;;;;20.50;48.40;;;;;;5084378;28;19947;-72
2022/01/19 05:20:28;;;;;;;;;;;20.40;48.30;;;;;;5081948;28;19919;-72
2022/01/19 05:22:53;;;;;;;;;;;20.50;48.40;;;;;;5084166;28;19916;-72
2022/01/19 05:25:19;;;;;;;;;;;20.50;48.40;;;;;;5078760;28;19923;-71
2022/01/19 05:27:44;;;;;;;;;;;20.40;48.40;;;;;;5082455;28;19916;-71
2022/01/19 05:30:10;;;;;;;;;;;20.40;48.40;;;;;;5078863;28;19913;-72
2022/01/19 05:32:36;;;;;;;;;;;20.40;48.40;;;;;;5084268;28;19912;-72
2022/01/19 05:35:01;;;;;;;;;;;20.40;48.40;;;;;;5080856;28;19951;-71
2022/01/19 05:37:27;;;;;;;;;;;20.40;48.40;;;;;;5083505;28;19976;-72
2022/01/19 05:39:52;;;;;;;;;;;20.40;48.40;;;;;;5079068;28;20357;-72
2022/01/19 05:42:18;;;;;;;;;;;20.40;48.50;;;;;;5077326;28;20467;-72
2022/01/19 05:44:44;;;;;;;;;;;20.40;48.50;;;;;;5080033;28;20034;-72
2022/01/19 05:47:13;;;;;;;;;;;20.40;48.50;;;;;;5083624;28;19995;-72
2022/01/19 05:49:39;;;;;;;;;;;20.40;48.50;;;;;;5085776;28;19925;-72
2022/01/19 05:52:06;;;;;;;;;;;20.40;48.50;;;;;;5088349;28;20538;-71
2022/01/19 05:54:32;;;;;;;;;;;20.40;48.50;;;;;;5088372;28;20002;-71
2022/01/19 05:56:58;;;;;;;;;;;20.40;48.50;;;;;;5083824;28;20075;-73
2022/01/19 05:59:24;;;;;;;;;;;20.40;48.60;;;;;;5085495;28;19912;-73
2022/01/19 06:01:49;;;;;;;;;;;20.40;48.60;;;;;;5090363;28;19912;-72
2022/01/19 06:04:15;;;;;;;;;;;20.40;48.60;;;;;;5090478;28;19947;-72
2022/01/19 06:06:40;;;;;;;;;;;20.40;48.60;;;;;;5089803;28;20260;-71
2022/01/19 06:09:21;;;;;;;;;;;20.40;48.70;;;;;;5087219;28;19923;-73
2022/01/19 06:11:46;;;;;;;;;;;20.30;48.60;;;;;;5079304;28;19912;-73
2022/01/19 06:14:12;;;;;;;;;;;20.40;48.70;;;;;;5089819;28;19989;-72
2022/01/19 06:16:39;;;;;;;;;;;20.30;48.60;;;;;;5088520;28;20324;-72
2022/01/19 06:19:05;;;;;;;;;;;20.30;48.70;;;;;;5090535;28;19920;-73
2022/01/19 06:21:31;;;;;;;;;;;20.30;48.70;;;;;;5087871;28;19926;-72
2022/01/19 06:23:56;;;;;;;;;;;20.30;48.70;;;;;;5090371;28;19916;-73
2022/01/19 06:26:22;;;;;;;;;;;20.30;48.70;;;;;;5085062;28;19969;-72
2022/01/19 06:28:47;;;;;;;;;;;20.30;48.70;;;;;;5089656;28;19920;-73
2022/01/19 06:31:13;;;;;;;;;;;20.30;48.80;;;;;;5084900;28;20359;-71
2022/01/19 06:33:38;;;;;;;;;;;20.30;48.80;;;;;;5089012;28;19916;-73
2022/01/19 06:36:04;;;;;;;;;;;20.30;48.80;;;;;;5086700;28;20021;-72
2022/01/19 06:38:30;;;;;;;;;;;20.30;48.80;;;;;;5090942;28;19916;-71
2022/01/19 06:40:56;;;;;;;;;;;20.30;48.80;;;;;;5090349;28;19965;-71
2022/01/19 06:43:21;;;;;;;;;;;20.30;48.80;;;;;;5090643;28;19916;-71
2022/01/19 06:45:47;;;;;;;;;;;20.30;48.90;;;;;;5090966;28;19920;-70
2022/01/19 06:48:12;;;;;;;;;;;20.30;48.90;;;;;;5092138;28;19939;-71
2022/01/19 06:50:38;;;;;;;;;;;20.30;48.90;;;;;;5091256;28;19941;-71
2022/01/19 06:53:03;;;;;;;;;;;20.30;48.90;;;;;;5089785;28;19912;-71
2022/01/19 06:55:29;;;;;;;;;;;20.30;48.90;;;;;;5088411;28;20613;-72
2022/01/19 06:57:54;;;;;;;;;;;20.30;48.90;;;;;;5089322;28;19919;-72
2022/01/19 07:00:20;;;;;;;;;;;20.30;49.00;;;;;;5089727;28;19924;-73
2022/01/19 07:02:45;;;;;;;;;;;20.30;48.90;;;;;;5076914;28;19920;-72
2022/01/19 07:05:11;;;;;;;;;;;20.20;48.90;;;;;;5083611;28;19928;-71
2022/01/19 07:07:37;;;;;;;;;;;20.20;48.90;;;;;;5085959;28;19926;-71
2022/01/19 07:10:03;;;;;;;;;;;20.20;49.00;;;;;;5086316;28;19916;-71
2022/01/19 07:12:29;;;;;;;;;;;20.20;49.00;;;;;;5083596;28;20009;-72
2022/01/19 07:14:54;;;;;;;;;;;20.20;49.00;;;;;;5085573;28;19919;-72
2022/01/19 07:17:20;;;;;;;;;;;20.20;49.00;;;;;;5082481;28;21373;-73
2022/01/19 07:19:46;;;;;;;;;;;20.20;49.10;;;;;;5081631;28;20487;-73
2022/01/19 07:22:11;;;;;;;;;;;20.20;49.10;;;;;;5082407;28;19920;-72
2022/01/19 07:24:37;;;;;;;;;;;20.20;49.70;;;;;;5077615;28;19920;-73
2022/01/19 07:27:03;;;;;;;;;;;20.20;49.20;;;;;;5076489;28;20074;-71
2022/01/19 07:29:29;;;;;;;;;;;20.20;49.20;;;;;;5081426;28;20354;-71
2022/01/19 07:31:57;;;;;;;;;;;20.20;49.40;;;;;;5084760;28;19977;-69
2022/01/19 07:34:22;;;;;;;;;;;20.30;50.00;;;;;;5077916;28;19951;-72
2022/01/19 07:36:47;;;;;;;;;;;20.50;50.20;;;;;;5085726;28;19948;-73
2022/01/19 07:39:14;;;;;;;;;;;20.80;50.40;;;;;;5081803;28;20023;-71
2022/01/19 07:41:39;;;;;;;;;;;21.10;50.40;;;;;;5080026;28;20327;-72
2022/01/19 07:44:06;;;;;;;;;;;21.30;50.30;;;;;;5084617;28;19920;-72
2022/01/19 07:46:31;;;;;;;;;;;21.70;49.50;;;;;;5082270;28;19971;-70
2022/01/19 07:48:57;;;;;;;;;;;22.00;49.10;;;;;;5085191;28;19959;-71
2022/01/19 07:51:22;;;;;;;;;;;22.20;48.80;;;;;;5086333;28;20502;-69
2022/01/19 07:53:49;;;;;;;;;;;22.40;48.50;;;;;;5079885;28;19956;-71
2022/01/19 07:56:14;;;;;;;;;;;22.60;48.30;;;;;;5088303;28;19913;-69
2022/01/19 07:58:40;;;;;;;;;;;22.80;48.10;;;;;;5086006;28;19954;-69
2022/01/19 08:01:05;;;;;;;;;;;22.90;48.00;;;;;;5082510;28;19944;-69
2022/01/19 08:03:31;;;;;;;;;;;23.10;47.90;;;;;;5083633;28;19960;-68
2022/01/19 08:05:56;;;;;;;;;;;23.20;47.80;;;;;;5083964;28;20444;-73
2022/01/19 08:08:22;;;;;;;;;;;23.30;47.70;;;;;;5086167;28;19951;-68
2022/01/19 08:10:48;;;;;;;;;;;23.40;47.70;;;;;;5084308;28;19950;-72
2022/01/19 08:13:15;;;;;;;;;;;23.50;47.80;;;;;;5101793;28;19916;-69
2022/01/19 08:15:40;;;;;;;;;;;23.40;48.00;;;;;;5085397;28;20002;-68
2022/01/19 08:18:06;;;;;;;;;;;23.20;48.10;;;;;;5081773;28;20431;-70
2022/01/19 08:20:31;;;;;;;;;;;23.20;48.10;;;;;;5086524;28;19920;-69
2022/01/19 08:22:57;;;;;;;;;;;23.10;48.20;;;;;;5082235;28;20375;-73
2022/01/19 08:25:22;;;;;;;;;;;23.10;48.20;;;;;;5079439;28;19916;-70
2022/01/19 08:27:48;;;;;;;;;;;23.10;48.70;;;;;;5086203;28;20306;-71
2022/01/19 08:30:14;;;;;;;;;;;23.30;48.80;;;;;;5090327;28;19923;-67
2022/01/19 08:32:40;;;;;;;;;;;23.50;48.60;;;;;;5080882;28;20322;-69
2022/01/19 08:35:07;;;;;;;;;;;23.60;48.20;;;;;;5085648;28;19918;-71
2022/01/19 08:37:33;;;;;;;;;;;23.60;48.20;;;;;;5082688;28;19916;-73
2022/01/19 08:39:59;;;;;;;;;;;23.50;48.40;;;;;;5081551;28;21346;-72
2022/01/19 08:42:25;;;;;;;;;;;23.50;47.10;;;;;;5081519;28;19927;-71
2022/01/19 08:44:50;;;;;;;;;;;23.40;45.90;;;;;;5080329;28;20030;-73
2022/01/19 08:47:16;;;;;;;;;;;23.40;45.40;;;;;;5084885;28;20411;-72
2022/01/19 08:49:41;;;;;;;;;;;23.40;45.70;;;;;;5079382;28;20275;-67
2022/01/19 08:52:07;;;;;;;;;;;23.40;46.60;;;;;;5083436;28;19916;-69
2022/01/19 08:54:33;;;;;;;;;;;23.30;46.30;;;;;;5085157;28;19952;-68
2022/01/19 08:57:01;;;;;;;;;;;23.30;46.50;;;;;;5082698;28;19931;-69
2022/01/19 08:59:27;;;;;;;;;;;23.40;46.70;;;;;;5077125;28;20938;-72
2022/01/19 09:01:53;;;;;;;;;;;23.40;46.90;;;;;;5082496;28;20687;-73
2022/01/19 09:04:18;;;;;;;;;;;23.40;47.00;;;;;;5080016;28;19919;-70
2022/01/19 09:06:44;;;;;;;;;;;23.40;47.30;;;;;;5080984;28;19923;-72
2022/01/19 09:09:10;;;;;;;;;;;23.40;47.30;;;;;;5078234;28;19962;-71
2022/01/19 09:11:35;;;;;;;;;;;23.40;47.70;;;;;;5079986;28;19943;-71
2022/01/19 09:14:03;;;;;;;;;;;23.40;47.70;;;;;;5079100;28;20007;-71
2022/01/19 09:16:29;;;;;;;;;;;23.40;47.80;;;;;;5080550;28;20012;-68
2022/01/19 09:18:54;;;;;;;;;;;23.40;48.00;;;;;;5083663;28;19912;-72
2022/01/19 09:21:20;;;;;;;;;;;23.40;47.90;;;;;;5085225;28;19912;-72
2022/01/19 09:23:45;;;;;;;;;;;23.40;48.00;;;;;;5082291;28;20399;-72
2022/01/19 09:26:11;;;;;;;;;;;23.40;48.10;;;;;;5080528;28;19931;-69
2022/01/19 09:28:36;;;;;;;;;;;23.40;48.20;;;;;;5079748;28;20360;-69
2022/01/19 09:31:10;;;;;;;;;;;23.40;48.30;;;;;;5085512;28;19912;-72
2022/01/19 09:33:35;;;;;;;;;;;23.50;48.30;;;;;;5081321;28;20653;-71
2022/01/19 09:36:17;;;;;;;;;;;23.40;48.40;;;;;;5083823;28;19912;-72
2022/01/19 09:38:42;;;;;;;;;;;23.50;48.50;;;;;;5080401;28;19962;-68
2022/01/19 09:41:08;;;;;;;;;;;23.50;48.40;;;;;;5083935;28;19916;-72
2022/01/19 09:43:35;;;;;;;;;;;23.50;48.60;;;;;;5080042;28;20209;-71
2022/01/19 09:46:01;;;;;;;;;;;23.50;48.70;;;;;;5076686;28;19970;-70
2022/01/19 09:48:27;;;;;;;;;;;23.50;48.60;;;;;;5084074;28;20143;-73
2022/01/19 09:50:54;;;;;;;;;;;23.50;49.00;;;;;;5081804;28;19923;-73
2022/01/19 09:53:19;;;;;;;;;;;23.50;48.90;;;;;;5078963;28;19926;-71
2022/01/19 09:55:46;;;;;;;;;;;23.50;49.00;;;;;;5081479;28;20354;-72
2022/01/19 09:58:11;;;;;;;;;;;23.60;49.10;;;;;;5082659;28;19912;-72
2022/01/19 10:00:37;;;;;;;;;;;23.60;49.10;;;;;;5082293;28;20031;-73
2022/01/19 10:03:14;;;;;;;;;;;23.60;49.10;;;;;;5079383;28;19971;-71
2022/01/19 10:05:58;;;;;;;;;;;23.60;49.20;;;;;;5083887;28;19912;-74
2022/01/19 10:08:41;;;;;;;;;;;23.60;49.30;;;;;;5081548;28;19912;-70
2022/01/19 10:11:13;;;;;;;;;;;23.70;49.20;;;;;;5077823;28;20394;-74
2022/01/19 10:19:20;;;;;;;;;;;23.70;49.50;;;;;;5059818;28;19912;-70
2022/01/19 10:22:04;;;;;;;;;;;23.70;49.60;;;;;;5080976;28;19931;-69
2022/01/19 10:24:37;;;;;;;;;;;23.80;49.60;;;;;;5082971;28;19973;-73
2022/01/19 10:27:21;;;;;;;;;;;23.80;49.60;;;;;;5083160;28;19928;-74
2022/01/19 10:29:48;;;;;;;;;;;23.80;49.70;;;;;;5086509;28;19922;-72
2022/01/19 10:32:15;;;;;;;;;;;23.90;49.70;;;;;;5083268;28;20079;-70
2022/01/19 10:34:40;;;;;;;;;;;23.90;49.80;;;;;;5087404;28;19912;-71
2022/01/19 10:37:06;;;;;;;;;;;23.90;49.60;;;;;;5086375;28;20004;-70
2022/01/19 10:39:42;;;;;;;;;;;24.00;50.00;;;;;;5087008;28;20408;-68
2022/01/19 10:42:12;;;;;;;;;;;23.90;50.10;;;;;;5086702;28;19920;-71
2022/01/19 10:44:48;;;;;;;;;;;24.00;50.20;;;;;;5082484;28;19942;-72
2022/01/19 10:47:17;;;;;;;;;;;24.10;50.30;;;;;;5084743;28;19999;-71
2022/01/19 10:49:54;;;;;;;;;;;24.10;50.30;;;;;;5089443;28;20630;-68
2022/01/19 10:52:25;;;;;;;;;;;24.10;50.30;;;;;;5086791;28;19912;-73
2022/01/19 10:54:51;;;;;;;;;;;24.10;50.30;;;;;;5087592;28;19934;-69
2022/01/19 10:57:16;;;;;;;;;;;24.10;50.20;;;;;;5083527;28;19912;-72
2022/01/19 10:59:42;;;;;;;;;;;24.20;50.40;;;;;;5081365;28;19938;-72
2022/01/19 11:02:09;;;;;;;;;;;24.10;46.50;;;;;;5085567;28;19931;-73
2022/01/19 11:04:40;;;;;;;;;;;24.00;45.10;;;;;;5086496;28;20371;-72
2022/01/19 11:07:08;;;;;;;;;;;24.00;44.40;;;;;;5080487;28;19974;-72
2022/01/19 11:09:35;;;;;;;;;;;23.90;44.70;;;;;;5088512;28;19959;-71
2022/01/19 11:12:07;;;;;;;;;;;23.90;44.20;;;;;;5086009;28;19939;-72
2022/01/19 11:14:35;;;;;;;;;;;23.90;44.30;;;;;;5086268;28;20368;-71
2022/01/19 11:17:01;;;;;;;;;;;23.80;44.20;;;;;;5082149;28;19912;-72
2022/01/19 11:19:27;;;;;;;;;;;23.70;44.00;;;;;;5089456;28;20057;-73
2022/01/19 11:22:12;;;;;;;;;;;23.70;44.00;;;;;;5090599;28;19927;-73
2022/01/19 11:24:49;;;;;;;;;;;23.70;44.30;;;;;;5083216;28;20415;-74
2022/01/19 11:27:15;;;;;;;;;;;23.70;44.20;;;;;;5086507;28;20625;-73
2022/01/19 11:29:40;;;;;;;;;;;23.70;44.20;;;;;;5086021;28;20032;-73
2022/01/19 11:32:14;;;;;;;;;;;23.60;44.40;;;;;;5084429;28;19962;-74
2022/01/19 11:34:46;;;;;;;;;;;23.70;44.40;;;;;;5080301;28;19973;-71
2022/01/19 11:37:12;;;;;;;;;;;23.60;44.40;;;;;;5084841;28;19916;-73
2022/01/19 11:39:57;;;;;;;;;;;23.60;44.40;;;;;;5075953;28;19950;-69
2022/01/19 11:42:24;;;;;;;;;;;23.70;44.80;;;;;;5083395;28;19916;-73
2022/01/19 11:44:51;;;;;;;;;;;23.60;44.60;;;;;;5082208;28;20758;-72
2022/01/19 11:47:16;;;;;;;;;;;23.60;44.50;;;;;;5078740;28;19922;-70
2022/01/19 11:49:42;;;;;;;;;;;23.60;44.60;;;;;;5084503;28;20391;-70
2022/01/19 11:52:07;;;;;;;;;;;23.60;44.70;;;;;;5081457;28;19920;-72
2022/01/19 11:54:33;;;;;;;;;;;23.60;44.70;;;;;;5083239;28;19916;-73
2022/01/19 11:57:02;;;;;;;;;;;23.60;44.60;;;;;;5078894;28;19920;-70
2022/01/19 11:59:30;;;;;;;;;;;23.60;44.70;;;;;;5083296;28;19920;-71
2022/01/19 12:02:14;;;;;;;;;;;23.60;44.70;;;;;;5082920;28;19916;-75
2022/01/19 12:04:40;;;;;;;;;;;23.60;44.70;;;;;;5086031;28;19916;-71
2022/01/19 12:07:25;;;;;;;;;;;23.60;44.90;;;;;;5088865;28;19927;-69
2022/01/19 12:09:55;;;;;;;;;;;23.60;44.90;;;;;;5085272;28;19916;-71
2022/01/19 12:12:22;;;;;;;;;;;23.60;44.90;;;;;;5088700;28;19919;-70
2022/01/19 12:14:51;;;;;;;;;;;23.60;45.10;;;;;;5088538;28;19916;-72
2022/01/19 12:17:26;;;;;;;;;;;23.60;45.00;;;;;;5084895;28;20322;-70
2022/01/19 12:19:52;;;;;;;;;;;23.60;45.00;;;;;;5082326;28;20316;-70
2022/01/19 12:22:20;;;;;;;;;;;23.60;45.10;;;;;;5090252;28;19920;-70
2022/01/19 12:25:13;;;;;;;;;;;23.60;45.10;;;;;;5081146;28;19920;-70
2022/01/19 12:27:47;;;;;;;;;;;23.60;45.20;;;;;;5077070;28;19931;-69
2022/01/19 12:30:17;;;;;;;;;;;23.60;45.20;;;;;;5078752;28;20082;-70
2022/01/19 12:32:44;;;;;;;;;;;23.60;45.30;;;;;;5080806;28;19920;-70
2022/01/19 12:35:13;;;;;;;;;;;23.60;45.20;;;;;;5078460;28;19982;-74
2022/01/19 12:37:47;;;;;;;;;;;23.60;45.30;;;;;;5075052;28;19919;-67
2022/01/19 12:40:19;;;;;;;;;;;23.60;45.30;;;;;;5074753;28;20283;-72
2022/01/19 12:42:46;;;;;;;;;;;23.60;45.30;;;;;;5075974;28;19920;-71
2022/01/19 12:45:31;;;;;;;;;;;23.60;45.30;;;;;;5079055;28;20347;-71
2022/01/19 12:48:00;;;;;;;;;;;23.60;45.40;;;;;;5083286;28;20462;-72
2022/01/19 12:50:29;;;;;;;;;;;23.60;45.40;;;;;;5083537;28;19973;-72
2022/01/19 12:52:58;;;;;;;;;;;23.60;45.40;;;;;;5084153;28;19919;-71
2022/01/19 12:55:33;;;;;;;;;;;23.60;45.40;;;;;;5085605;28;19973;-72
2022/01/19 12:57:59;;;;;;;;;;;23.60;45.40;;;;;;5083735;28;19970;-70
2022/01/19 13:00:27;;;;;;;;;;;23.60;45.60;;;;;;5080626;28;19912;-68
2022/01/19 13:02:52;;;;;;;;;;;23.60;45.60;;;;;;5085601;28;19942;-73
2022/01/19 13:05:19;;;;;;;;;;;23.50;45.60;;;;;;5083924;28;20011;-70
2022/01/19 13:07:51;;;;;;;;;;;23.50;45.80;;;;;;5083638;28;20368;-70
2022/01/19 13:10:27;;;;;;;;;;;23.50;45.80;;;;;;5077348;28;19959;-72
2022/01/19 13:13:04;;;;;;;;;;;23.60;45.90;;;;;;5077296;28;19925;-73
2022/01/19 13:15:46;;;;;;;;;;;23.60;46.10;;;;;;5078412;28;20015;-74
2022/01/19 13:18:12;;;;;;;;;;;23.60;46.00;;;;;;5081821;28;19923;-73
2022/01/19 13:20:47;;;;;;;;;;;23.70;46.10;;;;;;5077723;28;19964;-72
2022/01/19 13:23:13;;;;;;;;;;;23.70;46.30;;;;;;5077058;28;19916;-71
2022/01/19 13:25:38;;;;;;;;;;;23.70;45.90;;;;;;5080038;28;19919;-72
2022/01/19 13:28:04;;;;;;;;;;;23.70;45.70;;;;;;5069840;28;20507;-73
2022/01/19 13:30:31;;;;;;;;;;;23.70;45.60;;;;;;5080196;28;19931;-73
2022/01/19 13:32:57;;;;;;;;;;;23.70;45.60;;;;;;5080982;28;19920;-73
2022/01/19 13:35:24;;;;;;;;;;;23.70;45.50;;;;;;5074235;28;20548;-71
2022/01/19 13:37:54;;;;;;;;;;;23.70;45.40;;;;;;5076768;28;20425;-73
2022/01/19 13:40:31;;;;;;;;;;;23.70;45.40;;;;;;5075022;28;19924;-73
2022/01/19 13:43:00;;;;;;;;;;;23.70;45.50;;;;;;5075174;28;19912;-71
2022/01/19 13:46:13;;;;;;;;;;;23.70;45.50;;;;;;5081681;28;19913;-73
2022/01/19 13:50:54;;;;;;;;;;;23.70;45.40;;;;;;5076705;28;19916;-71
2022/01/19 13:53:29;;;;;;;;;;;23.70;45.40;;;;;;5082733;28;19924;-72
2022/01/19 13:55:55;;;;;;;;;;;23.70;45.40;;;;;;5074874;28;19916;-70
2022/01/19 13:58:21;;;;;;;;;;;23.70;45.30;;;;;;5082807;28;20038;-69
2022/01/19 14:00:50;;;;;;;;;;;23.70;45.10;;;;;;5078797;28;19999;-69
2022/01/19 14:03:16;;;;;;;;;;;23.70;45.20;;;;;;5080797;28;20477;-71
2022/01/19 14:05:42;;;;;;;;;;;23.70;45.20;;;;;;5080260;28;20362;-69
2022/01/19 14:08:08;;;;;;;;;;;23.70;45.20;;;;;;5082339;28;20016;-70
2022/01/19 14:10:40;;;;;;;;;;;23.70;45.20;;;;;;5076221;28;20379;-71
2022/01/19 14:13:29;;;;;;;;;;;23.70;45.10;;;;;;5082696;28;20023;-70
2022/01/19 14:15:55;;;;;;;;;;;23.70;45.10;;;;;;5085405;28;19916;-68
2022/01/19 14:18:21;;;;;;;;;;;23.60;45.20;;;;;;5083197;28;19973;-72
2022/01/19 14:21:03;;;;;;;;;;;23.70;45.20;;;;;;5080352;28;20530;-72
2022/01/19 14:23:29;;;;;;;;;;;23.60;45.00;;;;;;5086078;28;20417;-69
2022/01/19 14:26:04;;;;;;;;;;;23.70;45.10;;;;;;5083005;28;19920;-71
2022/01/19 14:28:30;;;;;;;;;;;23.60;45.10;;;;;;5081547;28;19920;-70
2022/01/19 14:31:01;;;;;;;;;;;23.70;45.30;;;;;;5082134;28;19923;-68
2022/01/19 14:33:26;;;;;;;;;;;23.70;45.40;;;;;;5088136;28;20070;-66
2022/01/19 14:35:56;;;;;;;;;;;23.70;45.30;;;;;;5081002;28;19927;-72
2022/01/19 14:38:28;;;;;;;;;;;23.60;45.30;;;;;;5082276;28;20098;-69
2022/01/19 14:40:55;;;;;;;;;;;23.60;45.30;;;;;;5084218;28;19920;-69
2022/01/19 14:43:22;;;;;;;;;;;23.60;45.40;;;;;;5084101;28;19944;-72
2022/01/19 14:46:03;;;;;;;;;;;23.60;45.50;;;;;;5085437;28;19936;-71
2022/01/19 14:48:33;;;;;;;;;;;23.50;45.40;;;;;;5087457;28;19955;-71
2022/01/19 14:50:59;;;;;;;;;;;23.50;45.60;;;;;;5088711;28;19916;-70
2022/01/19 14:53:24;;;;;;;;;;;23.50;45.70;;;;;;5089538;28;20339;-71
2022/01/19 14:55:50;;;;;;;;;;;23.50;45.60;;;;;;5087240;28;19916;-72
2022/01/19 14:58:15;;;;;;;;;;;23.40;45.60;;;;;;5086324;28;19923;-71
2022/01/19 15:00:41;;;;;;;;;;;23.40;45.60;;;;;;5088006;28;19963;-72
2022/01/19 15:03:07;;;;;;;;;;;23.40;45.70;;;;;;5100586;28;19920;-71
2022/01/19 15:05:34;;;;;;;;;;;23.40;45.60;;;;;;5088976;28;19908;-69
2022/01/19 15:07:59;;;;;;;;;;;23.30;45.60;;;;;;5088445;28;20380;-70
2022/01/19 15:10:26;;;;;;;;;;;23.30;45.60;;;;;;5081300;28;19920;-71
2022/01/19 15:12:53;;;;;;;;;;;23.20;45.60;;;;;;5085306;28;20339;-71
2022/01/19 15:15:21;;;;;;;;;;;23.20;45.70;;;;;;5080827;28;20685;-72
2022/01/19 15:17:46;;;;;;;;;;;23.20;45.60;;;;;;5082618;28;19934;-71
2022/01/19 15:20:12;;;;;;;;;;;23.20;45.70;;;;;;5088842;28;19909;-71
2022/01/19 15:22:37;;;;;;;;;;;23.20;45.90;;;;;;5084067;28;20602;-71
2022/01/19 15:25:03;;;;;;;;;;;23.20;45.80;;;;;;5083104;28;19919;-72
2022/01/19 15:27:29;;;;;;;;;;;23.10;45.80;;;;;;5083503;28;19998;-72
2022/01/19 15:29:54;;;;;;;;;;;23.10;45.90;;;;;;5086634;28;19916;-71
2022/01/19 15:32:20;;;;;;;;;;;23.10;45.90;;;;;;5088047;28;19916;-71
2022/01/19 15:34:46;;;;;;;;;;;23.10;46.00;;;;;;5085427;28;19912;-71
2022/01/19 15:37:11;;;;;;;;;;;23.00;45.90;;;;;;5083920;28;20686;-71
2022/01/19 15:39:38;;;;;;;;;;;23.00;46.00;;;;;;5084282;28;20358;-68